createdAt,value
2018-07-14T00:01:10.571Z,8.37
2018-07-14T00:03:39.281Z,7.90
2018-07-14T00:06:07.950Z,7.60
2018-07-14T00:08:36.639Z,8.77
2018-07-14T00:11:05.428Z,8.23
2018-07-14T00:13:34.153Z,8.43
2018-07-14T00:16:02.869Z,8.10
2018-07-14T00:18:31.573Z,8.03
2018-07-14T00:21:00.326Z,7.60
2018-07-14T00:23:28.942Z,7.50
2018-07-14T00:26:02.457Z,7.87
2018-07-14T00:28:33.414Z,7.17
2018-07-14T00:31:02.128Z,7.77
2018-07-14T00:33:31.418Z,7.50
2018-07-14T00:36:00.069Z,7.10
2018-07-14T00:38:28.605Z,7.70
2018-07-14T00:40:57.316Z,7.73
2018-07-14T00:43:26.024Z,7.20
2018-07-14T00:45:54.708Z,8.43
2018-07-14T00:48:23.421Z,7.47
2018-07-14T00:50:51.777Z,7.73
2018-07-14T00:53:20.516Z,8.27
2018-07-14T00:55:49.249Z,8.23
2018-07-14T00:58:17.987Z,8.40
2018-07-14T01:00:46.729Z,7.50
2018-07-14T01:03:15.449Z,7.93
2018-07-14T01:05:44.134Z,7.90
2018-07-14T01:08:12.795Z,7.60
2018-07-14T01:10:41.478Z,7.83
2018-07-14T01:13:10.226Z,8.13
2018-07-14T01:15:38.886Z,8.10
2018-07-14T01:18:07.691Z,8.10
2018-07-14T01:20:36.434Z,8.47
2018-07-14T01:23:05.163Z,8.50
2018-07-14T01:25:33.941Z,8.97
2018-07-14T01:28:02.672Z,8.70
2018-07-14T01:30:31.366Z,7.67
2018-07-14T01:33:00.056Z,8.60
2018-07-14T01:35:28.816Z,8.60
2018-07-14T01:37:57.481Z,7.80
2018-07-14T01:40:26.210Z,8.80
2018-07-14T01:42:54.935Z,9.47
2018-07-14T01:45:23.668Z,9.27
2018-07-14T01:47:52.353Z,9.00
2018-07-14T01:50:21.064Z,9.57
2018-07-14T01:52:49.763Z,9.20
2018-07-14T01:55:18.532Z,8.97
2018-07-14T01:57:47.267Z,8.47
2018-07-14T02:00:15.971Z,8.70
2018-07-14T02:02:44.653Z,7.57
2018-07-14T02:05:13.345Z,8.40
2018-07-14T02:07:42.087Z,8.53
2018-07-14T02:10:10.790Z,9.07
2018-07-14T02:12:39.670Z,8.07
2018-07-14T02:15:08.466Z,8.37
2018-07-14T02:17:37.210Z,8.63
2018-07-14T02:20:06.244Z,8.87
2018-07-14T02:22:34.937Z,8.23
2018-07-14T02:25:03.645Z,8.37
2018-07-14T02:27:32.394Z,9.77
2018-07-14T02:30:01.095Z,9.10
2018-07-14T02:32:29.848Z,9.00
2018-07-14T02:34:58.211Z,10.23
2018-07-14T02:37:26.937Z,10.70
2018-07-14T02:39:55.650Z,9.57
2018-07-14T02:42:24.371Z,9.40
2018-07-14T02:44:53.029Z,10.17
2018-07-14T02:47:21.787Z,10.60
2018-07-14T02:49:50.476Z,10.47
2018-07-14T02:52:19.240Z,11.23
2018-07-14T02:54:48.413Z,10.20
2018-07-14T02:57:17.144Z,11.00
2018-07-14T02:59:45.890Z,10.70
2018-07-14T03:02:14.601Z,10.10
2018-07-14T03:04:43.276Z,9.70
2018-07-14T03:07:11.976Z,9.33
2018-07-14T03:09:40.925Z,9.93
2018-07-14T03:12:09.627Z,9.97
2018-07-14T03:14:39.149Z,9.77
2018-07-14T03:17:07.841Z,9.27
2018-07-14T03:19:36.630Z,9.20
2018-07-14T03:22:05.341Z,9.23
2018-07-14T03:24:34.034Z,9.70
2018-07-14T03:27:02.754Z,10.40
2018-07-14T03:29:31.607Z,11.00
2018-07-14T03:31:59.952Z,9.60
2018-07-14T03:34:28.661Z,9.80
2018-07-14T03:36:57.355Z,8.53
2018-07-14T03:39:26.052Z,10.10
2018-07-14T03:41:54.897Z,9.87
2018-07-14T03:44:23.603Z,9.53
2018-07-14T03:46:52.302Z,9.77
2018-07-14T03:49:21.056Z,9.47
2018-07-14T03:51:49.722Z,9.83
2018-07-14T03:54:18.418Z,9.93
2018-07-14T03:56:47.264Z,10.17
2018-07-14T03:59:15.980Z,10.00
2018-07-14T04:01:44.672Z,9.30
2018-07-14T04:04:13.357Z,9.37
2018-07-14T04:06:42.113Z,8.13
2018-07-14T04:09:10.839Z,9.53
2018-07-14T04:11:39.145Z,8.43
2018-07-14T04:14:07.880Z,8.20
2018-07-14T04:16:36.657Z,8.00
2018-07-14T04:19:05.377Z,7.77
2018-07-14T04:21:34.103Z,8.03
2018-07-14T04:24:02.802Z,7.97
2018-07-14T04:26:31.554Z,8.47
2018-07-14T04:29:00.292Z,7.93
2018-07-14T04:31:29.015Z,8.23
2018-07-14T04:33:57.375Z,8.00
2018-07-14T04:36:26.158Z,8.40
2018-07-14T04:38:55.016Z,8.13
2018-07-14T04:41:23.738Z,7.83
2018-07-14T04:43:52.424Z,7.70
2018-07-14T04:46:21.137Z,8.00
2018-07-14T04:48:49.845Z,7.33
2018-07-14T04:51:18.221Z,7.70
2018-07-14T04:53:46.937Z,7.67
2018-07-14T04:56:15.659Z,7.33
2018-07-14T04:58:44.498Z,7.70
2018-07-14T05:01:13.207Z,8.23
2018-07-14T05:03:41.881Z,7.33
2018-07-14T05:06:10.583Z,7.20
2018-07-14T05:08:39.256Z,7.50
2018-07-14T05:11:08.069Z,7.57
2018-07-14T05:13:36.782Z,6.67
2018-07-14T05:16:05.483Z,7.40
2018-07-14T05:18:34.371Z,7.17
2018-07-14T05:21:03.067Z,6.50
2018-07-14T05:23:31.985Z,5.90
2018-07-14T05:26:00.662Z,5.53
2018-07-14T05:28:29.451Z,5.43
2018-07-14T05:30:58.240Z,5.37
2018-07-14T05:33:26.930Z,5.40
2018-07-14T05:35:55.717Z,5.70
2018-07-14T05:38:24.396Z,5.60
2018-07-14T05:40:53.179Z,5.57
2018-07-14T05:43:28.478Z,5.47
2018-07-14T05:45:57.198Z,5.67
2018-07-14T05:48:25.914Z,5.90
2018-07-14T05:50:54.622Z,5.10
2018-07-14T05:53:23.329Z,5.47
2018-07-14T05:55:52.024Z,4.67
2018-07-14T05:58:20.718Z,5.47
2018-07-14T06:00:49.654Z,4.93
2018-07-14T06:03:18.435Z,5.40
2018-07-14T06:05:47.147Z,4.40
2018-07-14T06:08:15.861Z,4.23
2018-07-14T06:10:44.203Z,3.80
2018-07-14T06:13:12.992Z,3.93
2018-07-14T06:15:41.657Z,3.80
2018-07-14T06:18:10.378Z,3.87
2018-07-14T06:20:39.095Z,4.00
2018-07-14T06:23:07.767Z,4.60
2018-07-14T06:25:36.492Z,4.90
2018-07-14T06:28:05.269Z,4.63
2018-07-14T06:30:33.967Z,4.07
2018-07-14T06:33:02.658Z,4.37
2018-07-14T06:35:31.358Z,4.37
2018-07-14T06:38:00.105Z,5.00
2018-07-14T06:40:28.823Z,4.77
2018-07-14T06:42:57.598Z,4.93
2018-07-14T06:45:26.326Z,4.80
2018-07-14T06:47:55.071Z,4.07
2018-07-14T06:50:23.756Z,4.40
2018-07-14T06:52:53.178Z,3.47
2018-07-14T06:55:21.921Z,3.30
2018-07-14T06:57:50.652Z,3.30
2018-07-14T07:00:19.345Z,3.67
2018-07-14T07:02:48.557Z,3.87
2018-07-14T07:05:17.283Z,3.70
2018-07-14T07:07:46.005Z,3.50
2018-07-14T07:10:14.690Z,3.80
2018-07-14T07:12:43.392Z,3.30
2018-07-14T07:15:12.145Z,3.00
2018-07-14T07:17:40.831Z,3.33
2018-07-14T07:23:08.353Z,3.40
2018-07-14T07:25:37.107Z,4.20
2018-07-14T07:28:05.827Z,3.70
2018-07-14T07:30:34.938Z,4.33
2018-07-14T07:33:03.711Z,3.60
2018-07-14T07:35:32.490Z,4.13
2018-07-14T07:38:01.231Z,4.00
2018-07-14T07:40:29.922Z,4.17
2018-07-14T07:42:58.644Z,4.60
2018-07-14T07:45:27.412Z,3.90
2018-07-14T07:47:56.127Z,4.50
2018-07-14T07:50:24.845Z,4.10
2018-07-14T07:52:53.811Z,4.30
2018-07-14T07:55:22.112Z,3.90
2018-07-14T07:57:50.748Z,4.27
2018-07-14T08:00:19.637Z,4.30
2018-07-14T08:02:47.948Z,3.87
2018-07-14T08:05:16.727Z,3.80
2018-07-14T08:07:45.440Z,4.30
2018-07-14T08:10:14.195Z,4.63
2018-07-14T08:12:42.941Z,3.70
2018-07-14T08:15:11.703Z,4.60
2018-07-14T08:17:40.474Z,4.57
2018-07-14T08:20:09.197Z,4.97
2018-07-14T08:22:38.001Z,3.80
2018-07-14T08:25:06.811Z,4.45
2018-07-14T08:27:35.540Z,3.80
2018-07-14T08:30:04.595Z,4.10
2018-07-14T08:33:35.996Z,4.15
2018-07-14T08:36:04.717Z,4.33
2018-07-14T08:38:33.470Z,4.33
2018-07-14T08:41:02.450Z,4.10
2018-07-14T08:43:31.125Z,5.03
2018-07-14T08:45:59.831Z,4.70
2018-07-14T08:48:28.540Z,4.70
2018-07-14T08:50:56.873Z,4.90
2018-07-14T08:53:25.607Z,5.00
2018-07-14T08:55:54.293Z,5.50
2018-07-14T08:58:30.385Z,5.72
2018-07-14T09:01:00.190Z,7.28
2018-07-14T09:03:30.495Z,5.62
2018-07-14T09:06:00.136Z,5.92
2018-07-14T09:08:28.891Z,7.47
2018-07-14T09:10:57.902Z,6.00
2018-07-14T09:13:26.635Z,6.72
2018-07-14T09:15:55.415Z,6.08
2018-07-14T09:18:24.129Z,7.72
2018-07-14T09:20:52.838Z,7.60
2018-07-14T09:23:21.172Z,7.10
2018-07-14T09:25:50.013Z,6.00
2018-07-14T09:28:18.731Z,8.10
2018-07-14T09:30:47.533Z,8.08
2018-07-14T09:33:16.267Z,8.25
2018-07-14T09:35:44.981Z,8.53
2018-07-14T09:38:14.602Z,8.05
2018-07-14T09:40:43.445Z,8.90
2018-07-14T09:43:12.174Z,8.30
2018-07-14T09:45:40.891Z,7.00
2018-07-14T09:48:09.633Z,6.87
2018-07-14T09:50:37.969Z,7.70
2018-07-14T09:53:06.739Z,7.58
2018-07-14T09:55:35.589Z,8.60
2018-07-14T09:58:04.380Z,8.73
2018-07-14T10:00:33.255Z,8.18
2018-07-14T10:03:02.661Z,6.62
2018-07-14T10:05:31.049Z,7.90
2018-07-14T10:07:59.998Z,7.33
2018-07-14T10:10:28.952Z,7.22
2018-07-14T10:12:57.646Z,8.25
2018-07-14T10:15:26.382Z,7.67
2018-07-14T10:17:55.076Z,6.72
2018-07-14T10:20:23.812Z,6.42
2018-07-14T10:22:52.485Z,6.47
2018-07-14T10:25:21.019Z,5.65
2018-07-14T10:27:49.258Z,5.58
2018-07-14T10:30:17.933Z,6.22
2018-07-14T10:32:46.625Z,5.67
2018-07-14T10:35:14.919Z,6.47
2018-07-14T10:37:43.683Z,5.37
2018-07-14T10:40:12.468Z,6.28
2018-07-14T10:42:41.289Z,5.90
2018-07-14T10:45:10.001Z,6.45
2018-07-14T10:47:38.732Z,6.37
2018-07-14T10:50:07.472Z,6.33
2018-07-14T10:52:36.156Z,6.60
2018-07-14T10:55:04.870Z,5.30
2018-07-14T10:57:33.858Z,6.30
2018-07-14T11:00:02.561Z,6.30
2018-07-14T11:02:31.291Z,6.05
2018-07-14T11:05:00.058Z,5.10
2018-07-14T11:07:28.789Z,5.03
2018-07-14T11:09:57.559Z,6.08
2018-07-14T11:12:26.368Z,6.72
2018-07-14T11:14:55.159Z,6.62
2018-07-14T11:17:23.889Z,4.75
2018-07-14T11:19:52.627Z,4.87
2018-07-14T11:22:21.350Z,5.65
2018-07-14T11:24:50.027Z,5.30
2018-07-14T11:27:18.801Z,5.37
2018-07-14T11:29:47.167Z,6.20
2018-07-14T11:32:15.892Z,5.10
2018-07-14T11:34:44.801Z,4.92
2018-07-14T11:37:13.848Z,5.00
2018-07-14T11:39:42.659Z,6.22
2018-07-14T11:42:11.475Z,6.45
2018-07-14T11:44:40.207Z,6.25
2018-07-14T11:47:08.882Z,5.67
2018-07-14T11:49:37.581Z,5.08
2018-07-14T11:52:06.339Z,6.12
2018-07-14T11:54:35.035Z,7.78
2018-07-14T11:57:03.753Z,5.83
2018-07-14T11:59:32.526Z,4.67
2018-07-14T12:02:01.299Z,7.10
2018-07-14T12:04:30.042Z,7.22
2018-07-14T12:06:58.699Z,6.62
2018-07-14T12:09:27.421Z,7.00
2018-07-14T12:11:56.200Z,7.42
2018-07-14T12:14:24.927Z,6.00
2018-07-14T12:16:53.675Z,6.47
2018-07-14T12:19:22.406Z,8.08
2018-07-14T12:21:51.201Z,6.75
2018-07-14T12:24:20.041Z,5.53
2018-07-14T12:26:48.927Z,6.97
2018-07-14T12:29:17.599Z,5.95
2018-07-14T12:31:46.361Z,5.70
2018-07-14T12:34:15.081Z,7.08
2018-07-14T12:36:43.878Z,6.42
2018-07-14T12:39:12.700Z,7.12
2018-07-14T12:41:41.421Z,6.83
2018-07-14T12:44:09.788Z,7.05
2018-07-14T12:46:38.505Z,7.33
2018-07-14T12:49:07.227Z,5.22
2018-07-14T12:51:36.217Z,6.55
2018-07-14T12:54:04.917Z,6.50
2018-07-14T12:56:33.595Z,7.28
2018-07-14T12:59:02.506Z,8.18
2018-07-14T13:01:31.291Z,6.67
2018-07-14T13:03:59.986Z,5.87
2018-07-14T13:06:28.773Z,7.25
2018-07-14T13:08:57.451Z,6.58
2018-07-14T13:11:25.747Z,5.22
2018-07-14T13:13:54.448Z,5.53
2018-07-14T13:16:23.199Z,5.67
2018-07-14T13:18:51.957Z,6.20
2018-07-14T13:21:20.746Z,5.78
2018-07-14T13:23:49.484Z,6.00
2018-07-14T13:26:18.186Z,5.45
2018-07-14T13:28:46.884Z,5.87
2018-07-14T13:31:15.245Z,5.70
2018-07-14T13:33:43.941Z,5.72
2018-07-14T13:36:12.669Z,4.53
2018-07-14T13:38:51.613Z,4.10
2018-07-14T13:41:14.839Z,5.22
2018-07-14T13:43:43.598Z,4.33
2018-07-14T13:46:12.286Z,5.42
2018-07-14T13:48:40.975Z,6.08
2018-07-14T13:51:09.685Z,5.37
2018-07-14T13:53:38.441Z,6.03
2018-07-14T13:56:07.313Z,4.30
2018-07-14T13:58:36.034Z,5.47
2018-07-14T14:01:04.814Z,4.17
2018-07-14T14:03:33.482Z,5.72
2018-07-14T14:06:02.192Z,4.65
2018-07-14T14:08:30.984Z,5.92
2018-07-14T14:10:59.692Z,5.30
2018-07-14T14:13:28.018Z,5.80
2018-07-14T14:15:56.764Z,5.17
2018-07-14T14:18:25.481Z,4.70
2018-07-14T14:20:54.294Z,4.67
2018-07-14T14:23:23.097Z,4.90
2018-07-14T14:25:51.922Z,4.22
2018-07-14T14:28:20.752Z,5.08
2018-07-14T14:30:49.538Z,3.83
2018-07-14T14:33:18.296Z,4.00
2018-07-14T14:35:47.067Z,4.10
2018-07-14T14:38:15.836Z,4.00
2018-07-14T14:40:44.579Z,4.10
2018-07-14T14:43:13.319Z,4.10
2018-07-14T14:45:42.069Z,3.75
2018-07-14T14:48:10.849Z,3.75
2018-07-14T14:50:39.595Z,4.20
2018-07-14T14:53:08.615Z,4.37
2018-07-14T14:55:37.351Z,4.28
2018-07-14T14:58:06.530Z,4.40
2018-07-14T15:00:35.267Z,3.80
2018-07-14T15:03:03.636Z,3.30
2018-07-14T15:05:32.379Z,3.12
2018-07-14T15:08:01.200Z,3.70
2018-07-14T15:10:29.566Z,3.80
2018-07-14T15:12:58.277Z,3.58
2018-07-14T15:15:26.992Z,4.03
2018-07-14T15:18:02.791Z,3.65
2018-07-14T15:20:31.882Z,3.40
2018-07-14T15:23:00.869Z,3.00
2018-07-14T15:25:29.601Z,3.55
2018-07-14T15:27:58.423Z,3.42
2018-07-14T15:30:28.428Z,3.50
2018-07-14T15:32:56.839Z,3.02
2018-07-14T15:35:25.443Z,3.55
2018-07-14T15:37:54.181Z,3.98
2018-07-14T15:40:22.911Z,3.47
2018-07-14T15:42:51.697Z,3.10
2018-07-14T15:45:20.398Z,2.98
2018-07-14T15:47:49.105Z,3.20
2018-07-14T15:50:17.795Z,3.62
2018-07-14T15:52:46.556Z,3.17
2018-07-14T15:55:15.370Z,4.00
2018-07-14T15:57:44.098Z,3.20
2018-07-14T16:00:12.954Z,3.30
2018-07-14T16:02:41.670Z,4.03
2018-07-14T16:05:10.375Z,3.10
2018-07-14T16:07:39.130Z,3.67
2018-07-14T16:10:07.849Z,3.37
2018-07-14T16:12:36.539Z,3.50
2018-07-14T16:15:05.517Z,3.42
2018-07-14T16:17:35.318Z,3.22
2018-07-14T16:20:04.231Z,3.52
2018-07-14T16:22:32.989Z,3.30
2018-07-14T16:25:01.746Z,3.27
2018-07-14T16:27:30.665Z,3.37
2018-07-14T16:29:59.363Z,3.83
2018-07-14T16:32:28.099Z,3.25
2018-07-14T16:34:56.746Z,3.37
2018-07-14T16:37:25.460Z,5.33
2018-07-14T16:39:54.205Z,3.17
2018-07-14T16:42:22.568Z,3.33
2018-07-14T16:44:51.288Z,6.90
2018-07-14T16:47:20.025Z,3.50
2018-07-14T16:49:50.077Z,3.70
2018-07-14T16:52:18.793Z,3.37
2018-07-14T16:54:47.481Z,3.52
2018-07-14T16:57:16.221Z,3.40
2018-07-14T16:59:44.916Z,3.37
2018-07-14T17:02:13.635Z,2.92
2018-07-14T17:04:42.481Z,3.10
2018-07-14T17:07:11.179Z,3.10
2018-07-14T17:09:40.119Z,2.55
2018-07-14T17:12:09.049Z,2.90
2018-07-14T17:14:37.746Z,3.00
2018-07-14T17:17:06.431Z,2.75
2018-07-14T17:19:35.144Z,3.62
2018-07-14T17:22:03.890Z,3.30
2018-07-14T17:24:32.591Z,3.10
2018-07-14T17:27:01.400Z,3.20
2018-07-14T17:29:30.073Z,3.58
2018-07-14T17:31:58.840Z,3.20
2018-07-14T17:34:27.491Z,3.42
2018-07-14T17:36:56.438Z,2.50
2018-07-14T17:39:25.717Z,3.77
2018-07-14T17:41:54.431Z,3.40
2018-07-14T17:44:23.536Z,3.02
2018-07-14T17:46:52.210Z,3.30
2018-07-14T17:49:20.942Z,3.15
2018-07-14T17:51:49.704Z,3.22
2018-07-14T17:54:18.530Z,3.05
2018-07-14T17:56:47.275Z,3.05
2018-07-14T17:59:16.076Z,2.70
2018-07-14T18:01:44.810Z,3.10
2018-07-14T18:04:13.490Z,3.05
2018-07-14T18:06:42.232Z,2.62
2018-07-14T18:09:11.699Z,3.20
2018-07-14T18:11:40.585Z,3.27
2018-07-14T18:14:09.274Z,3.30
2018-07-14T18:16:38.163Z,2.70
2018-07-14T18:19:06.981Z,3.08
2018-07-14T18:21:35.639Z,2.70
2018-07-14T18:24:03.963Z,2.90
2018-07-14T18:26:32.603Z,2.65
2018-07-14T18:29:01.304Z,2.52
2018-07-14T18:31:30.001Z,3.52
2018-07-14T18:33:58.714Z,3.50
2018-07-14T18:36:27.439Z,3.50
2018-07-14T18:38:56.162Z,4.03
2018-07-14T18:41:24.869Z,3.10
2018-07-14T18:43:53.601Z,2.98
2018-07-14T18:46:22.677Z,3.05
2018-07-14T18:48:51.976Z,2.98
2018-07-14T18:51:20.779Z,2.92
2018-07-14T18:53:49.490Z,2.95
2018-07-14T18:56:18.200Z,3.15
2018-07-14T18:58:47.023Z,2.72
2018-07-14T19:01:15.750Z,3.20
2018-07-14T19:03:44.822Z,3.05
2018-07-14T19:06:13.580Z,3.33
2018-07-14T19:08:42.307Z,3.50
2018-07-14T19:11:11.078Z,3.10
2018-07-14T19:13:39.807Z,3.25
2018-07-14T19:16:08.561Z,3.80
2018-07-14T19:18:37.648Z,2.87
2018-07-14T19:21:06.381Z,3.10
2018-07-14T19:23:35.499Z,3.00
2018-07-14T19:26:04.796Z,3.52
2018-07-14T19:28:33.662Z,3.17
2018-07-14T19:31:02.215Z,3.25
2018-07-14T19:33:30.945Z,3.22
2018-07-14T19:35:59.694Z,3.90
2018-07-14T19:38:28.583Z,3.37
2018-07-14T19:40:57.546Z,3.33
2018-07-14T19:43:26.273Z,3.10
2018-07-14T19:45:55.069Z,3.47
2018-07-14T19:48:23.950Z,3.08
2018-07-14T19:50:52.694Z,3.00
2018-07-14T19:53:21.597Z,3.00
2018-07-14T19:55:50.457Z,3.25
2018-07-14T19:58:19.133Z,2.80
2018-07-14T20:00:47.624Z,3.10
2018-07-14T20:03:16.372Z,3.00
2018-07-14T20:05:45.099Z,3.42
2018-07-14T20:08:13.797Z,2.90
2018-07-14T20:10:42.546Z,3.40
2018-07-14T20:13:11.276Z,3.10
2018-07-14T20:15:40.354Z,3.25
2018-07-14T20:18:09.299Z,2.90
2018-07-14T20:20:38.938Z,2.87
2018-07-14T20:23:07.305Z,2.80
2018-07-14T20:25:36.067Z,2.72
2018-07-14T20:28:04.996Z,2.90
2018-07-14T20:30:33.800Z,2.90
2018-07-14T20:33:02.518Z,2.90
2018-07-14T20:35:32.216Z,2.72
2018-07-14T20:38:00.950Z,3.00
2018-07-14T20:40:29.971Z,2.50
2018-07-14T20:42:59.084Z,2.90
2018-07-14T20:45:27.818Z,2.30
2018-07-14T20:47:56.642Z,2.40
2018-07-14T20:50:25.437Z,2.30
2018-07-14T20:52:54.701Z,2.50
2018-07-14T20:55:23.532Z,2.85
2018-07-14T20:57:52.272Z,2.40
2018-07-14T21:00:21.017Z,2.42
2018-07-14T21:02:49.734Z,2.65
2018-07-14T21:05:18.490Z,2.42
2018-07-14T21:07:47.157Z,2.72
2018-07-14T21:10:16.018Z,2.15
2018-07-14T21:12:44.783Z,2.70
2018-07-14T21:15:13.801Z,2.45
2018-07-14T21:17:42.507Z,2.70
2018-07-14T21:20:11.326Z,2.65
2018-07-14T21:22:40.092Z,2.47
2018-07-14T21:25:09.120Z,2.58
2018-07-14T21:27:37.935Z,2.80
2018-07-14T21:30:06.780Z,2.55
2018-07-14T21:32:35.629Z,2.80
2018-07-14T21:35:04.549Z,2.55
2018-07-14T21:37:33.457Z,2.50
2018-07-14T21:40:02.183Z,2.65
2018-07-14T21:42:30.968Z,2.70
2018-07-14T21:44:59.672Z,2.70
2018-07-14T21:47:28.402Z,3.15
2018-07-14T21:49:57.454Z,2.37
2018-07-14T21:52:26.195Z,2.92
2018-07-14T21:54:54.897Z,2.60
2018-07-14T21:57:23.240Z,2.60
2018-07-14T21:59:52.034Z,2.67
2018-07-14T22:02:20.858Z,2.42
2018-07-14T22:04:49.623Z,2.62
2018-07-14T22:07:18.885Z,2.55
2018-07-14T22:09:47.657Z,2.47
2018-07-14T22:12:16.559Z,3.00
2018-07-14T22:14:48.395Z,2.65
2018-07-14T22:17:17.111Z,2.42
2018-07-14T22:19:45.770Z,2.70
2018-07-14T22:22:14.472Z,3.05
2018-07-14T22:24:43.177Z,3.02
2018-07-14T22:27:11.899Z,3.05
2018-07-14T22:29:40.620Z,2.87
2018-07-14T22:32:09.348Z,2.90
2018-07-14T22:34:38.063Z,2.80
2018-07-14T22:37:06.777Z,2.90
2018-07-14T22:39:35.517Z,3.00
2018-07-14T22:42:04.259Z,3.17
2018-07-14T22:44:32.893Z,3.10
2018-07-14T22:47:01.579Z,3.40
2018-07-14T22:49:30.433Z,3.25
2018-07-14T22:51:59.136Z,2.60
2018-07-14T22:54:27.858Z,2.60
2018-07-14T22:56:56.566Z,2.70
2018-07-14T22:59:25.283Z,2.80
2018-07-14T23:01:54.075Z,2.80
2018-07-14T23:04:22.824Z,2.55
2018-07-14T23:06:51.594Z,2.50
2018-07-14T23:09:20.305Z,2.80
2018-07-14T23:11:49.034Z,2.87
2018-07-14T23:14:17.744Z,2.73
2018-07-14T23:16:46.456Z,2.60
2018-07-14T23:19:15.156Z,2.70
2018-07-14T23:21:43.921Z,2.43
2018-07-14T23:24:12.817Z,2.80
2018-07-14T23:26:41.512Z,2.40
2018-07-14T23:29:10.213Z,2.70
2018-07-14T23:31:38.965Z,2.40
2018-07-14T23:34:07.713Z,2.53
2018-07-14T23:36:36.435Z,2.57
2018-07-14T23:39:06.781Z,2.40
2018-07-14T23:41:35.731Z,2.47
2018-07-14T23:44:04.541Z,2.37
2018-07-14T23:46:33.303Z,2.10
2018-07-14T23:49:02.150Z,2.40
2018-07-14T23:51:30.867Z,2.00
2018-07-14T23:53:59.189Z,2.20
2018-07-14T23:56:27.550Z,1.87
2018-07-14T23:58:56.281Z,2.10
